createdAt,value
2024-01-06T00:00:31.177Z,98713.03
2024-01-06T00:01:29.340Z,98713.13
2024-01-06T00:02:27.595Z,98716.72
2024-01-06T00:03:25.569Z,98715.41
2024-01-06T00:04:23.809Z,98719.34
2024-01-06T00:05:21.545Z,98719.59
2024-01-06T00:06:19.353Z,98719.78
2024-01-06T00:07:17.416Z,98714.38
2024-01-06T00:08:15.470Z,98712.69
2024-01-06T00:09:13.008Z,98717.59
2024-01-06T00:10:10.761Z,98712.47
2024-01-06T00:11:09.002Z,98717.59
2024-01-06T00:12:07.142Z,98709.41
2024-01-06T00:13:05.571Z,98717.72
2024-01-06T00:14:03.784Z,98713.59
2024-01-06T00:15:02.144Z,98713.50
2024-01-06T00:16:00.591Z,98713.09
2024-01-06T00:16:58.521Z,98715.50
2024-01-06T00:17:56.377Z,98720.50
2024-01-06T00:18:54.700Z,98712.63
2024-01-06T00:19:53.001Z,98717.00
2024-01-06T00:20:50.431Z,98712.53
2024-01-06T00:21:47.762Z,98710.47
2024-01-06T00:22:45.932Z,98716.53
2024-01-06T00:23:43.476Z,98712.09
2024-01-06T00:24:40.678Z,98710.06
2024-01-06T00:25:38.045Z,98710.22
2024-01-06T00:26:35.263Z,98705.34
2024-01-06T00:27:32.829Z,98706.28
2024-01-06T00:28:30.307Z,98703.97
2024-01-06T00:29:27.644Z,98708.88
2024-01-06T00:30:25.637Z,98710.09
2024-01-06T00:31:23.179Z,98718.59
2024-01-06T00:32:21.022Z,98706.44
2024-01-06T00:33:18.743Z,98709.50
2024-01-06T00:34:16.296Z,98710.34
2024-01-06T00:35:13.790Z,98704.22
2024-01-06T00:36:11.492Z,98700.09
2024-01-06T00:37:09.063Z,98701.91
2024-01-06T00:38:06.524Z,98695.28
2024-01-06T00:39:05.318Z,98693.75
2024-01-06T00:40:04.015Z,98699.41
2024-01-06T00:41:01.345Z,98689.16
2024-01-06T00:41:58.678Z,98697.44
2024-01-06T00:42:56.045Z,98694.94
2024-01-06T00:43:53.592Z,98690.34
2024-01-06T00:44:51.036Z,98693.22
2024-01-06T00:45:48.435Z,98695.19
2024-01-06T00:46:46.988Z,98700.06
2024-01-06T00:47:44.465Z,98689.72
2024-01-06T00:48:41.934Z,98694.91
2024-01-06T00:49:39.813Z,98687.06
2024-01-06T00:50:37.256Z,98688.91
2024-01-06T00:51:36.851Z,98683.53
2024-01-06T00:52:35.651Z,98690.69
2024-01-06T00:53:32.927Z,98684.44
2024-01-06T00:54:31.593Z,98688.69
2024-01-06T00:55:29.086Z,98688.78
2024-01-06T00:56:28.461Z,98685.75
2024-01-06T00:57:25.897Z,98686.62
2024-01-06T00:58:23.234Z,98687.31
2024-01-06T00:59:20.669Z,98684.34
2024-01-06T01:00:18.243Z,98690.56
2024-01-06T01:01:15.764Z,98694.84
2024-01-06T01:02:13.149Z,98694.53
2024-01-06T01:03:10.499Z,98701.84
2024-01-06T01:04:07.950Z,98695.06
2024-01-06T01:05:05.706Z,98701.44
2024-01-06T01:06:03.806Z,98704.44
2024-01-06T01:07:01.242Z,98694.06
2024-01-06T01:07:58.767Z,98691.47
2024-01-06T01:08:56.290Z,98695.81
2024-01-06T01:09:53.662Z,98697.28
2024-01-06T01:10:50.973Z,98697.47
2024-01-06T01:11:48.686Z,98692.16
2024-01-06T01:12:46.250Z,98694.59
2024-01-06T01:13:43.993Z,98695.47
2024-01-06T01:14:41.271Z,98695.47
2024-01-06T01:15:38.608Z,98690.25
2024-01-06T01:16:36.038Z,98695.09
2024-01-06T01:17:33.531Z,98689.00
2024-01-06T01:18:31.049Z,98692.44
2024-01-06T01:19:28.691Z,98691.84
2024-01-06T01:20:26.240Z,98693.44
2024-01-06T01:21:23.615Z,98694.16
2024-01-06T01:22:20.881Z,98695.56
2024-01-06T01:23:18.420Z,98686.31
2024-01-06T01:24:15.859Z,98695.56
2024-01-06T01:25:14.479Z,98696.38
2024-01-06T01:26:12.002Z,98691.72
2024-01-06T01:27:09.380Z,98693.00
2024-01-06T01:28:06.948Z,98692.09
2024-01-06T01:29:04.417Z,98698.69
2024-01-06T01:30:01.884Z,98693.13
2024-01-06T01:30:59.336Z,98682.56
2024-01-06T01:31:57.127Z,98696.81
2024-01-06T01:32:54.804Z,98687.31
2024-01-06T01:33:52.363Z,98687.31
2024-01-06T01:34:50.134Z,98689.72
2024-01-06T01:35:47.593Z,98684.84
2024-01-06T01:36:45.397Z,98682.41
2024-01-06T01:37:42.763Z,98683.13
2024-01-06T01:38:40.195Z,98679.81
2024-01-06T01:39:37.588Z,98673.41
2024-01-06T01:40:35.194Z,98679.53
2024-01-06T01:41:32.464Z,98677.06
2024-01-06T01:42:29.928Z,98685.22
2024-01-06T01:43:27.554Z,98686.22
2024-01-06T01:44:25.050Z,98675.50
2024-01-06T01:45:22.601Z,98680.69
2024-01-06T01:46:20.392Z,98671.75
2024-01-06T01:47:20.283Z,98678.19
2024-01-06T01:48:17.858Z,98676.50
2024-01-06T01:49:15.441Z,98675.66
2024-01-06T01:50:14.650Z,98677.38
2024-01-06T01:51:12.063Z,98672.22
2024-01-06T01:52:09.554Z,98679.00
2024-01-06T01:53:07.377Z,98671.25
2024-01-06T01:54:06.397Z,98677.56
2024-01-06T01:55:04.187Z,98672.38
2024-01-06T01:56:05.770Z,98679.38
2024-01-06T01:57:04.317Z,98674.03
2024-01-06T01:58:01.807Z,98674.22
2024-01-06T01:58:59.245Z,98668.41
2024-01-06T01:59:56.973Z,98675.19
2024-01-06T02:00:54.381Z,98674.19
2024-01-06T02:01:51.908Z,98676.47
2024-01-06T02:02:49.619Z,98671.31
2024-01-06T02:03:47.400Z,98675.13
2024-01-06T02:04:46.919Z,98677.25
2024-01-06T02:05:44.317Z,98673.19
2024-01-06T02:06:41.997Z,98669.59
2024-01-06T02:07:39.428Z,98671.19
2024-01-06T02:08:36.851Z,98664.25
2024-01-06T02:09:34.553Z,98670.91
2024-01-06T02:10:31.864Z,98670.28
2024-01-06T02:11:29.238Z,98666.28
2024-01-06T02:12:26.655Z,98667.34
2024-01-06T02:13:25.447Z,98663.53
2024-01-06T02:14:22.712Z,98674.44
2024-01-06T02:15:20.951Z,98668.31
2024-01-06T02:16:18.532Z,98672.88
2024-01-06T02:17:15.924Z,98675.75
2024-01-06T02:18:13.587Z,98673.28
2024-01-06T02:19:13.394Z,98671.09
2024-01-06T02:20:11.810Z,98665.88
2024-01-06T02:21:09.490Z,98671.88
2024-01-06T02:22:06.972Z,98666.72
2024-01-06T02:23:04.373Z,98665.63
2024-01-06T02:24:01.860Z,98663.78
2024-01-06T02:24:59.255Z,98661.56
2024-01-06T02:25:57.653Z,98666.13
2024-01-06T02:26:55.051Z,98663.22
2024-01-06T02:27:52.486Z,98659.63
2024-01-06T02:28:50.910Z,98653.44
2024-01-06T02:29:48.300Z,98654.59
2024-01-06T02:30:46.008Z,98645.31
2024-01-06T02:31:43.591Z,98654.03
2024-01-06T02:32:41.154Z,98647.75
2024-01-06T02:33:39.754Z,98652.50
2024-01-06T02:34:40.062Z,98648.12
2024-01-06T02:35:37.958Z,98643.91
2024-01-06T02:36:35.360Z,98641.63
2024-01-06T02:37:32.733Z,98631.25
2024-01-06T02:38:30.085Z,98648.78
2024-01-06T02:39:27.524Z,98647.69
2024-01-06T02:40:24.740Z,98646.53
2024-01-06T02:41:22.096Z,98643.16
2024-01-06T02:42:19.660Z,98645.69
2024-01-06T02:43:17.098Z,98636.03
2024-01-06T02:44:15.746Z,98643.81
2024-01-06T02:45:13.247Z,98642.00
2024-01-06T02:46:10.695Z,98640.53
2024-01-06T02:47:08.346Z,98633.53
2024-01-06T02:48:06.060Z,98639.81
2024-01-06T02:49:03.577Z,98634.94
2024-01-06T02:50:01.231Z,98638.03
2024-01-06T02:50:58.679Z,98643.87
2024-01-06T02:51:56.076Z,98642.50
2024-01-06T02:52:53.389Z,98632.72
2024-01-06T02:53:50.663Z,98632.13
2024-01-06T02:54:48.120Z,98637.25
2024-01-06T02:55:45.568Z,98634.94
2024-01-06T02:56:42.809Z,98636.63
2024-01-06T02:57:40.373Z,98633.94
2024-01-06T02:58:37.728Z,98639.47
2024-01-06T02:59:36.367Z,98626.69
2024-01-06T03:00:33.836Z,98630.66
2024-01-06T03:01:33.150Z,98637.25
2024-01-06T03:02:30.798Z,98638.38
2024-01-06T03:03:28.215Z,98637.31
2024-01-06T03:04:25.773Z,98631.84
2024-01-06T03:05:23.299Z,98633.38
2024-01-06T03:06:20.796Z,98636.84
2024-01-06T03:07:18.206Z,98640.59
2024-01-06T03:08:15.594Z,98640.00
2024-01-06T03:09:13.365Z,98626.44
2024-01-06T03:10:10.926Z,98616.75
2024-01-06T03:11:08.432Z,98626.66
2024-01-06T03:12:08.749Z,98627.75
2024-01-06T03:13:06.592Z,98615.94
2024-01-06T03:14:04.237Z,98629.87
2024-01-06T03:15:01.559Z,98628.78
2024-01-06T03:15:59.124Z,98627.28
2024-01-06T03:16:56.544Z,98612.69
2024-01-06T03:17:54.283Z,98614.03
2024-01-06T03:18:52.071Z,98607.16
2024-01-06T03:19:49.667Z,98604.03
2024-01-06T03:20:47.377Z,98600.94
2024-01-06T03:21:44.825Z,98602.97
2024-01-06T03:22:42.230Z,98604.19
2024-01-06T03:23:40.168Z,98603.31
2024-01-06T03:24:38.519Z,98605.53
2024-01-06T03:25:35.976Z,98599.34
2024-01-06T03:26:33.474Z,98604.75
2024-01-06T03:27:30.797Z,98596.56
2024-01-06T03:28:28.174Z,98598.37
2024-01-06T03:29:25.450Z,98598.81
2024-01-06T03:30:22.828Z,98591.63
2024-01-06T03:31:20.216Z,98599.66
2024-01-06T03:32:17.678Z,98589.38
2024-01-06T03:33:15.207Z,98592.28
2024-01-06T03:34:13.120Z,98590.16
2024-01-06T03:35:10.524Z,98598.19
2024-01-06T03:36:08.524Z,98603.38
2024-01-06T03:37:06.419Z,98597.03
2024-01-06T03:38:04.306Z,98596.88
2024-01-06T03:39:01.828Z,98600.03
2024-01-06T03:39:59.248Z,98606.13
2024-01-06T03:40:56.606Z,98596.13
2024-01-06T03:41:54.018Z,98597.75
2024-01-06T03:42:51.378Z,98597.75
2024-01-06T03:43:48.596Z,98602.03
2024-01-06T03:44:46.015Z,98589.94
2024-01-06T03:45:43.479Z,98586.69
2024-01-06T03:46:41.031Z,98584.34
2024-01-06T03:47:38.405Z,98587.84
2024-01-06T03:48:36.534Z,98596.69
2024-01-06T03:49:34.141Z,98598.53
2024-01-06T03:50:31.580Z,98595.25
2024-01-06T03:51:29.191Z,98586.69
2024-01-06T03:52:26.757Z,98596.69
2024-01-06T03:53:27.090Z,98590.63
2024-01-06T03:54:25.513Z,98591.34
2024-01-06T03:55:23.974Z,98593.34
2024-01-06T03:56:21.130Z,98597.75
2024-01-06T03:57:18.523Z,98584.16
2024-01-06T03:58:16.025Z,98588.56
2024-01-06T03:59:13.345Z,98588.06
2024-01-06T04:00:11.314Z,98583.37
2024-01-06T04:01:08.585Z,98582.78
2024-01-06T04:02:05.938Z,98580.25
2024-01-06T04:03:03.905Z,98584.19
2024-01-06T04:04:01.138Z,98582.81
2024-01-06T04:04:58.679Z,98582.78
2024-01-06T04:05:56.236Z,98585.00
2024-01-06T04:06:53.650Z,98583.13
2024-01-06T04:07:51.375Z,98582.94
2024-01-06T04:08:48.918Z,98575.06
2024-01-06T04:09:46.327Z,98583.53
2024-01-06T04:10:44.570Z,98583.31
2024-01-06T04:11:41.938Z,98581.03
2024-01-06T04:12:39.599Z,98578.16
2024-01-06T04:13:37.146Z,98581.63
2024-01-06T04:14:34.427Z,98572.34
2024-01-06T04:15:31.888Z,98577.06
2024-01-06T04:16:29.535Z,98585.72
2024-01-06T04:17:28.387Z,98583.03
2024-01-06T04:18:26.045Z,98589.66
2024-01-06T04:19:23.734Z,98584.22
2024-01-06T04:20:21.186Z,98583.87
2024-01-06T04:21:18.557Z,98579.38
2024-01-06T04:22:15.904Z,98576.47
2024-01-06T04:23:13.263Z,98575.63
2024-01-06T04:24:10.537Z,98585.53
2024-01-06T04:25:08.287Z,98590.06
2024-01-06T04:26:06.323Z,98588.22
2024-01-06T04:27:03.675Z,98585.28
2024-01-06T04:28:00.861Z,98585.44
2024-01-06T04:28:58.080Z,98581.13
2024-01-06T04:29:55.643Z,98586.69
2024-01-06T04:30:53.309Z,98593.50
2024-01-06T04:31:50.862Z,98590.47
2024-01-06T04:32:49.934Z,98585.28
2024-01-06T04:33:47.494Z,98589.84
2024-01-06T04:34:44.848Z,98593.38
2024-01-06T04:35:42.409Z,98587.78
2024-01-06T04:36:39.793Z,98582.47
2024-01-06T04:37:37.229Z,98582.06
2024-01-06T04:38:34.411Z,98584.75
2024-01-06T04:39:33.123Z,98583.63
2024-01-06T04:40:31.626Z,98591.34
2024-01-06T04:41:29.035Z,98579.75
2024-01-06T04:42:27.015Z,98587.00
2024-01-06T04:43:24.309Z,98584.88
2024-01-06T04:44:23.064Z,98592.56
2024-01-06T04:45:21.001Z,98589.00
2024-01-06T04:46:18.401Z,98588.28
2024-01-06T04:47:15.669Z,98591.09
2024-01-06T04:48:13.493Z,98592.13
2024-01-06T04:49:11.945Z,98597.03
2024-01-06T04:50:09.658Z,98596.63
2024-01-06T04:51:11.051Z,98582.59
2024-01-06T04:52:08.509Z,98597.50
2024-01-06T04:53:05.756Z,98591.78
2024-01-06T04:54:03.006Z,98585.38
2024-01-06T04:55:00.251Z,98601.41
2024-01-06T04:55:57.598Z,98597.63
2024-01-06T04:56:54.783Z,98598.66
2024-01-06T04:57:52.236Z,98603.72
2024-01-06T04:58:49.676Z,98606.00
2024-01-06T04:59:46.976Z,98589.53
2024-01-06T05:00:44.488Z,98604.38
2024-01-06T05:01:41.851Z,98606.63
2024-01-06T05:02:39.290Z,98605.63
2024-01-06T05:03:36.872Z,98606.25
2024-01-06T05:04:34.279Z,98604.97
2024-01-06T05:05:31.597Z,98610.59
2024-01-06T05:06:29.118Z,98607.25
2024-01-06T05:07:26.557Z,98603.94
2024-01-06T05:08:24.139Z,98602.28
2024-01-06T05:09:21.645Z,98611.56
2024-01-06T05:10:18.913Z,98602.66
2024-01-06T05:11:16.652Z,98608.09
2024-01-06T05:12:14.238Z,98604.31
2024-01-06T05:13:11.577Z,98604.78
2024-01-06T05:14:08.925Z,98605.87
2024-01-06T05:15:06.643Z,98607.84
2024-01-06T05:16:04.558Z,98604.00
2024-01-06T05:17:01.820Z,98609.91
2024-01-06T05:17:59.054Z,98604.56
2024-01-06T05:18:56.583Z,98613.41
2024-01-06T05:19:53.915Z,98608.31
2024-01-06T05:20:51.231Z,98612.78
2024-01-06T05:21:49.543Z,98610.12
2024-01-06T05:22:46.850Z,98606.81
2024-01-06T05:23:44.524Z,98613.13
2024-01-06T05:24:42.285Z,98607.63
2024-01-06T05:25:39.849Z,98611.56
2024-01-06T05:26:37.310Z,98616.19
2024-01-06T05:27:34.654Z,98619.03
2024-01-06T05:28:32.187Z,98622.94
2024-01-06T05:29:29.576Z,98621.25
2024-01-06T05:30:26.875Z,98620.75
2024-01-06T05:31:24.238Z,98621.28
2024-01-06T05:32:21.712Z,98619.44
2024-01-06T05:33:19.249Z,98623.28
2024-01-06T05:34:17.039Z,98616.88
2024-01-06T05:35:14.431Z,98621.97
2024-01-06T05:36:11.888Z,98618.06
2024-01-06T05:37:09.047Z,98622.63
2024-01-06T05:38:06.202Z,98624.84
2024-01-06T05:39:03.599Z,98616.34
2024-01-06T05:40:03.405Z,98621.47
2024-01-06T05:41:00.553Z,98619.56
2024-01-06T05:41:58.091Z,98615.91
2024-01-06T05:42:56.972Z,98621.63
2024-01-06T05:43:54.404Z,98616.28
2024-01-06T05:44:51.947Z,98614.28
2024-01-06T05:45:49.402Z,98613.41
2024-01-06T05:46:46.875Z,98613.37
2024-01-06T05:47:44.308Z,98609.47
2024-01-06T05:48:43.014Z,98610.19
2024-01-06T05:49:44.878Z,98608.88
2024-01-06T05:50:42.662Z,98607.91
2024-01-06T05:51:46.258Z,98605.03
2024-01-06T05:52:44.229Z,98606.81
2024-01-06T05:53:43.431Z,98609.59
2024-01-06T05:54:44.024Z,98607.66
2024-01-06T05:55:41.361Z,98613.19
2024-01-06T05:56:38.652Z,98602.53
2024-01-06T05:57:35.953Z,98602.88
2024-01-06T05:58:33.294Z,98616.69
2024-01-06T05:59:30.534Z,98611.69
2024-01-06T06:00:27.887Z,98611.50
2024-01-06T06:01:25.406Z,98609.78
2024-01-06T06:02:22.692Z,98608.28
2024-01-06T06:03:19.999Z,98606.69
2024-01-06T06:04:17.602Z,98610.84
2024-01-06T06:05:15.041Z,98613.34
2024-01-06T06:06:12.591Z,98607.97
2024-01-06T06:07:10.147Z,98618.47
2024-01-06T06:08:07.715Z,98610.25
2024-01-06T06:09:08.480Z,98616.41
2024-01-06T06:10:09.008Z,98617.19
2024-01-06T06:11:12.432Z,98623.94
2024-01-06T06:12:09.913Z,98620.03
2024-01-06T06:13:07.198Z,98630.81
2024-01-06T06:14:04.643Z,98629.53
2024-01-06T06:15:02.363Z,98638.88
2024-01-06T06:15:59.807Z,98637.09
2024-01-06T06:16:58.191Z,98640.41
2024-01-06T06:17:55.901Z,98637.44
2024-01-06T06:18:53.469Z,98632.31
2024-01-06T06:19:51.726Z,98637.44
2024-01-06T06:20:49.262Z,98633.50
2024-01-06T06:21:47.719Z,98638.63
2024-01-06T06:22:45.217Z,98632.81
2024-01-06T06:23:42.508Z,98637.31
2024-01-06T06:24:39.790Z,98636.50
2024-01-06T06:25:40.047Z,98633.62
2024-01-06T06:26:40.809Z,98632.88
2024-01-06T06:27:41.602Z,98640.75
2024-01-06T06:28:39.709Z,98637.25
2024-01-06T06:29:37.132Z,98634.34
2024-01-06T06:30:34.523Z,98633.94
2024-01-06T06:31:31.940Z,98639.03
2024-01-06T06:32:29.374Z,98638.19
2024-01-06T06:33:27.263Z,98644.19
2024-01-06T06:34:25.026Z,98641.91
2024-01-06T06:35:23.495Z,98641.69
2024-01-06T06:36:22.178Z,98641.78
2024-01-06T06:37:19.717Z,98642.13
2024-01-06T06:38:16.972Z,98644.00
2024-01-06T06:39:14.279Z,98644.37
2024-01-06T06:40:12.094Z,98643.78
2024-01-06T06:41:09.318Z,98651.94
2024-01-06T06:42:06.709Z,98655.91
2024-01-06T06:43:04.218Z,98653.38
2024-01-06T06:44:01.452Z,98650.38
2024-01-06T06:44:58.609Z,98658.41
2024-01-06T06:45:57.122Z,98660.25
2024-01-06T06:46:54.628Z,98656.31
2024-01-06T06:47:51.930Z,98653.66
2024-01-06T06:48:49.266Z,98652.06
2024-01-06T06:49:46.850Z,98655.53
2024-01-06T06:50:45.088Z,98660.22
2024-01-06T06:51:48.165Z,98661.81
2024-01-06T06:52:45.891Z,98652.47
2024-01-06T06:53:43.182Z,98651.37
2024-01-06T06:54:40.799Z,98647.03
2024-01-06T06:55:39.116Z,98650.28
2024-01-06T06:56:36.873Z,98649.84
2024-01-06T06:57:34.241Z,98653.50
2024-01-06T06:58:31.472Z,98665.91
2024-01-06T06:59:28.581Z,98662.41
2024-01-06T07:00:25.956Z,98654.53
2024-01-06T07:01:23.398Z,98652.75
2024-01-06T07:02:20.717Z,98655.62
2024-01-06T07:03:18.140Z,98653.16
2024-01-06T07:04:15.463Z,98659.69
2024-01-06T07:05:12.774Z,98662.31
2024-01-06T07:06:10.046Z,98655.97
2024-01-06T07:07:07.495Z,98648.44
2024-01-06T07:08:05.193Z,98662.84
2024-01-06T07:09:02.368Z,98660.31
2024-01-06T07:09:59.671Z,98665.03
2024-01-06T07:10:58.066Z,98657.94
2024-01-06T07:11:55.336Z,98651.75
2024-01-06T07:12:52.750Z,98647.13
2024-01-06T07:13:50.008Z,98654.50
2024-01-06T07:14:47.263Z,98646.75
2024-01-06T07:15:44.676Z,98654.81
2024-01-06T07:16:41.914Z,98645.16
2024-01-06T07:17:39.929Z,98647.97
2024-01-06T07:18:37.745Z,98646.66
2024-01-06T07:19:35.503Z,98649.53
2024-01-06T07:20:33.353Z,98656.50
2024-01-06T07:21:40.529Z,98649.41
2024-01-06T07:22:38.118Z,98651.69
2024-01-06T07:23:36.352Z,98657.47
2024-01-06T07:24:37.843Z,98650.28
2024-01-06T07:25:35.607Z,98653.44
2024-01-06T07:26:33.351Z,98652.44
2024-01-06T07:27:30.639Z,98651.63
2024-01-06T07:28:28.514Z,98648.44
2024-01-06T07:29:25.844Z,98645.75
2024-01-06T07:30:23.137Z,98647.69
2024-01-06T07:31:20.638Z,98649.78
2024-01-06T07:32:17.961Z,98649.75
2024-01-06T07:33:15.346Z,98654.53
2024-01-06T07:34:12.757Z,98654.34
2024-01-06T07:35:10.176Z,98656.56
2024-01-06T07:36:07.721Z,98652.56
2024-01-06T07:37:05.121Z,98649.16
2024-01-06T07:38:02.469Z,98646.97
2024-01-06T07:39:06.729Z,98643.84
2024-01-06T07:40:04.552Z,98646.69
2024-01-06T07:41:02.258Z,98649.56
2024-01-06T07:41:59.587Z,98653.66
2024-01-06T07:42:56.845Z,98642.53
2024-01-06T07:43:54.182Z,98648.66
2024-01-06T07:44:51.573Z,98642.47
2024-01-06T07:45:49.770Z,98643.44
2024-01-06T07:46:46.990Z,98647.19
2024-01-06T07:47:44.728Z,98648.12
2024-01-06T07:48:42.153Z,98645.16
2024-01-06T07:49:39.595Z,98647.66
2024-01-06T07:50:36.919Z,98653.00
2024-01-06T07:51:36.275Z,98646.31
2024-01-06T07:52:34.310Z,98653.00
2024-01-06T07:53:31.863Z,98647.88
2024-01-06T07:54:29.244Z,98643.63
2024-01-06T07:55:30.069Z,98649.28
2024-01-06T07:56:27.717Z,98645.91
2024-01-06T07:57:26.143Z,98641.63
2024-01-06T07:58:23.575Z,98645.78
2024-01-06T07:59:20.858Z,98653.19
2024-01-06T08:00:18.173Z,98650.84
2024-01-06T08:01:15.721Z,98649.50
2024-01-06T08:02:13.151Z,98648.16
2024-01-06T08:03:10.689Z,98650.69
2024-01-06T08:04:08.309Z,98651.59
2024-01-06T08:05:05.831Z,98653.91
2024-01-06T08:06:03.127Z,98648.41
2024-01-06T08:07:00.573Z,98647.94
2024-01-06T08:07:59.687Z,98650.56
2024-01-06T08:08:56.959Z,98649.56
2024-01-06T08:09:54.442Z,98651.97
2024-01-06T08:10:53.254Z,98650.69
2024-01-06T08:11:50.808Z,98654.41
2024-01-06T08:12:48.155Z,98649.81
2024-01-06T08:13:45.501Z,98660.94
2024-01-06T08:14:42.796Z,98661.59
2024-01-06T08:15:42.132Z,98661.38
2024-01-06T08:16:39.562Z,98659.53
2024-01-06T08:17:37.481Z,98658.56
2024-01-06T08:18:35.239Z,98659.72
2024-01-06T08:19:34.071Z,98664.56
2024-01-06T08:20:31.947Z,98664.84
2024-01-06T08:21:29.581Z,98664.63
2024-01-06T08:22:26.842Z,98664.19
2024-01-06T08:23:24.476Z,98668.47
2024-01-06T08:24:21.729Z,98672.16
2024-01-06T08:25:19.561Z,98668.88
2024-01-06T08:26:18.152Z,98664.56
2024-01-06T08:27:15.469Z,98665.53
2024-01-06T08:28:12.871Z,98668.72
2024-01-06T08:29:11.192Z,98663.56
2024-01-06T08:30:09.664Z,98664.84
2024-01-06T08:31:07.156Z,98661.31
2024-01-06T08:32:04.990Z,98666.66
2024-01-06T08:33:03.226Z,98660.66
2024-01-06T08:34:01.662Z,98658.25
2024-01-06T08:34:59.948Z,98657.16
2024-01-06T08:35:57.308Z,98660.88
2024-01-06T08:36:54.886Z,98665.38
2024-01-06T08:37:53.135Z,98654.47
2024-01-06T08:38:50.464Z,98659.00
2024-01-06T08:39:47.828Z,98665.03
2024-01-06T08:40:50.895Z,98666.50
2024-01-06T08:41:48.243Z,98662.47
2024-01-06T08:42:47.695Z,98664.50
2024-01-06T08:43:44.992Z,98662.41
2024-01-06T08:44:42.398Z,98662.72
2024-01-06T08:45:41.998Z,98656.97
2024-01-06T08:46:41.196Z,98655.75
2024-01-06T08:47:39.055Z,98661.06
2024-01-06T08:48:39.246Z,98657.81
2024-01-06T08:49:37.790Z,98654.34
2024-01-06T08:50:35.863Z,98658.03
2024-01-06T08:51:33.395Z,98658.97
2024-01-06T08:52:30.637Z,98655.44
2024-01-06T08:53:27.923Z,98665.97
2024-01-06T08:54:25.627Z,98654.59
2024-01-06T08:55:24.429Z,98653.00
2024-01-06T08:56:23.143Z,98656.62
2024-01-06T08:57:20.491Z,98656.69
2024-01-06T08:58:19.136Z,98654.28
2024-01-06T08:59:17.520Z,98654.94
2024-01-06T09:00:16.427Z,98656.59
2024-01-06T09:01:15.291Z,98650.38
2024-01-06T09:02:13.403Z,98655.34
2024-01-06T09:03:11.845Z,98653.31
2024-01-06T09:04:09.745Z,98660.72
2024-01-06T09:05:08.053Z,98658.19
2024-01-06T09:06:05.745Z,98653.06
2024-01-06T09:07:02.952Z,98659.19
2024-01-06T09:08:00.218Z,98661.31
2024-01-06T09:08:57.806Z,98667.78
2024-01-06T09:09:55.245Z,98665.59
2024-01-06T09:10:58.731Z,98665.09
2024-01-06T09:11:57.476Z,98669.81
2024-01-06T09:12:54.709Z,98666.44
2024-01-06T09:13:54.162Z,98663.56
2024-01-06T09:14:51.386Z,98666.84
2024-01-06T09:15:48.811Z,98675.87
2024-01-06T09:16:46.708Z,98678.00
2024-01-06T09:17:44.697Z,98676.06
2024-01-06T09:18:43.559Z,98675.56
2024-01-06T09:19:40.932Z,98674.16
2024-01-06T09:20:38.242Z,98679.16
2024-01-06T09:21:37.394Z,98680.22
2024-01-06T09:22:35.030Z,98680.22
2024-01-06T09:23:34.356Z,98675.37
2024-01-06T09:24:31.701Z,98678.19
2024-01-06T09:25:29.625Z,98685.81
2024-01-06T09:26:26.852Z,98680.31
2024-01-06T09:27:24.181Z,98681.38
2024-01-06T09:28:22.972Z,98678.25
2024-01-06T09:29:20.383Z,98676.78
2024-01-06T09:30:18.369Z,98668.72
2024-01-06T09:31:15.948Z,98669.16
2024-01-06T09:32:14.768Z,98667.31
2024-01-06T09:33:12.228Z,98661.31
2024-01-06T09:34:14.505Z,98658.56
2024-01-06T09:35:12.177Z,98663.09
2024-01-06T09:36:13.235Z,98669.34
2024-01-06T09:37:10.401Z,98661.31
2024-01-06T09:38:09.556Z,98663.34
2024-01-06T09:39:07.006Z,98655.94
2024-01-06T09:40:05.210Z,98657.72
2024-01-06T09:41:02.754Z,98666.03
2024-01-06T09:42:00.098Z,98666.72
2024-01-06T09:42:57.531Z,98672.03
2024-01-06T09:43:54.760Z,98662.84
2024-01-06T09:44:52.084Z,98670.31
2024-01-06T09:46:19.721Z,98669.50
2024-01-06T09:47:19.990Z,98671.59
2024-01-06T09:48:18.373Z,98670.56
2024-01-06T09:49:16.724Z,98672.66
2024-01-06T09:50:15.205Z,98669.53
2024-01-06T09:51:13.629Z,98662.69
2024-01-06T09:52:17.448Z,98665.44
2024-01-06T09:53:15.413Z,98664.53
2024-01-06T09:54:14.071Z,98669.28
2024-01-06T09:55:12.893Z,98668.47
2024-01-06T09:56:10.672Z,98673.44
2024-01-06T09:57:13.392Z,98665.78
2024-01-06T10:02:27.945Z,98666.31
2024-01-06T10:03:28.009Z,98666.56
2024-01-06T10:04:25.694Z,98660.75
2024-01-06T10:05:23.466Z,98665.09
2024-01-06T10:06:22.502Z,98669.28
2024-01-06T10:07:19.992Z,98663.53
2024-01-06T10:08:19.814Z,98654.75
2024-01-06T10:09:17.732Z,98665.28
2024-01-06T10:10:16.220Z,98656.91
2024-01-06T10:11:14.988Z,98653.63
2024-01-06T10:12:12.199Z,98654.41
2024-01-06T10:13:09.404Z,98658.91
2024-01-06T10:14:06.519Z,98656.91
2024-01-06T10:15:04.483Z,98653.38
2024-01-06T10:16:02.528Z,98656.22
2024-01-06T10:17:00.103Z,98650.56
2024-01-06T10:17:58.131Z,98646.19
2024-01-06T10:18:55.542Z,98647.00
2024-01-06T10:19:54.373Z,98645.75
2024-01-06T10:20:51.753Z,98641.44
2024-01-06T10:21:49.142Z,98647.47
2024-01-06T10:22:46.712Z,98656.16
2024-01-06T10:23:44.352Z,98650.56
2024-01-06T10:24:41.771Z,98655.72
2024-01-06T10:25:39.275Z,98653.88
2024-01-06T10:26:36.641Z,98655.94
2024-01-06T10:27:39.155Z,98653.47
2024-01-06T10:28:36.842Z,98658.25
2024-01-06T10:29:34.089Z,98654.34
2024-01-06T10:30:31.602Z,98651.87
2024-01-06T10:31:29.096Z,98653.69
2024-01-06T10:32:30.440Z,98651.87
2024-01-06T10:33:28.080Z,98660.94
2024-01-06T10:34:25.914Z,98654.69
2024-01-06T10:35:24.975Z,98656.19
2024-01-06T10:36:23.794Z,98653.91
2024-01-06T10:37:21.028Z,98653.06
2024-01-06T10:38:19.540Z,98658.09
2024-01-06T10:39:17.224Z,98655.97
2024-01-06T10:40:19.666Z,98660.31
2024-01-06T10:41:18.357Z,98654.97
2024-01-06T10:42:16.784Z,98652.47
2024-01-06T10:43:13.999Z,98648.84
2024-01-06T10:44:12.717Z,98648.91
2024-01-06T10:45:11.820Z,98645.88
2024-01-06T10:46:12.433Z,98640.72
2024-01-06T10:47:10.972Z,98645.22
2024-01-06T10:48:09.026Z,98645.63
2024-01-06T10:49:09.948Z,98640.25
2024-01-06T10:50:09.472Z,98643.34
2024-01-06T10:51:09.882Z,98642.69
2024-01-06T10:52:07.649Z,98635.44
2024-01-06T10:53:05.202Z,98633.09
2024-01-06T10:54:03.488Z,98630.63
2024-01-06T10:55:00.842Z,98630.44
2024-01-06T10:56:00.714Z,98628.19
2024-01-06T10:56:58.931Z,98628.37
2024-01-06T10:57:57.464Z,98626.75
2024-01-06T10:58:55.871Z,98633.50
2024-01-06T10:59:53.936Z,98639.69
2024-01-06T11:00:51.305Z,98628.37
2024-01-06T11:01:48.873Z,98624.19
2024-01-06T11:02:48.049Z,98624.25
2024-01-06T11:03:46.401Z,98626.91
2024-01-06T11:04:51.987Z,98624.22
2024-01-06T11:05:50.017Z,98613.31
2024-01-06T11:06:48.008Z,98615.44
2024-01-06T11:07:48.636Z,98616.88
2024-01-06T11:09:09.629Z,98614.56
2024-01-06T11:10:17.349Z,98613.16
2024-01-06T11:11:14.749Z,98617.03
2024-01-06T11:12:11.958Z,98611.44
2024-01-06T11:13:21.765Z,98614.47
2024-01-06T11:14:18.903Z,98619.03
2024-01-06T11:15:44.795Z,98610.84
2024-01-06T11:16:42.126Z,98618.69
2024-01-06T11:18:00.188Z,98612.47
2024-01-06T11:18:57.860Z,98612.31
2024-01-06T11:20:06.660Z,98617.66
2024-01-06T11:21:15.763Z,98610.66
2024-01-06T11:22:37.440Z,98604.88
2024-01-06T11:23:36.672Z,98607.84
2024-01-06T11:24:38.837Z,98607.59
2024-01-06T11:25:36.179Z,98604.91
2024-01-06T11:26:33.424Z,98603.06
2024-01-06T11:27:30.890Z,98601.81